LFPM 191830Z AUTO 04011G22KT 360V080 9999 FEW015/// BKN020/// BKN025/// ///TCU 04/01 Q1008

Les avions qui composent notre flotte

Avion Robin DR400-120

Avion école

F-BVMQ
   * tarif promotionnel appliqué pendant la formation des élèves non brevetés


F-BVMQ Planche